sensor_id;sensor_type;location;lat;lon;timestamp;P1;durP1;ratioP1;P2;durP2;ratioP2
19621;SDS011;9958;33.196;-97.114;2022-11-25T00:01:23;3.08;;;2.45;;
19621;SDS011;9958;33.196;-97.114;2022-11-25T00:03:53;6.03;;;2.15;;
19621;SDS011;9958;33.196;-97.114;2022-11-25T00:06:24;5.85;;;2.42;;
19621;SDS011;9958;33.196;-97.114;2022-11-25T00:08:55;3.55;;;2.28;;
19621;SDS011;9958;33.196;-97.114;2022-11-25T00:11:25;2.28;;;1.98;;
19621;SDS011;9958;33.196;-97.114;2022-11-25T00:13:55;2.78;;;2.20;;
19621;SDS011;9958;33.196;-97.114;2022-11-25T00:16:24;2.00;;;1.80;;
19621;SDS011;9958;33.196;-97.114;2022-11-25T00:18:53;1.58;;;1.48;;
19621;SDS011;9958;33.196;-97.114;2022-11-25T00:21:23;2.83;;;1.50;;
19621;SDS011;9958;33.196;-97.114;2022-11-25T00:23:53;1.67;;;1.42;;
19621;SDS011;9958;33.196;-97.114;2022-11-25T00:26:22;1.60;;;1.50;;
19621;SDS011;9958;33.196;-97.114;2022-11-25T00:28:52;2.45;;;1.80;;
19621;SDS011;9958;33.196;-97.114;2022-11-25T00:31:24;1.50;;;1.33;;
19621;SDS011;9958;33.196;-97.114;2022-11-25T00:33:53;1.30;;;1.13;;
19621;SDS011;9958;33.196;-97.114;2022-11-25T00:36:22;1.88;;;1.30;;
19621;SDS011;9958;33.196;-97.114;2022-11-25T00:38:52;1.30;;;1.20;;
19621;SDS011;9958;33.196;-97.114;2022-11-25T00:41:21;1.40;;;1.30;;
19621;SDS011;9958;33.196;-97.114;2022-11-25T00:44:07;1.60;;;1.15;;
19621;SDS011;9958;33.196;-97.114;2022-11-25T00:46:55;2.33;;;1.05;;
19621;SDS011;9958;33.196;-97.114;2022-11-25T00:49:24;1.15;;;1.05;;
19621;SDS011;9958;33.196;-97.114;2022-11-25T00:51:52;1.13;;;1.13;;
19621;SDS011;9958;33.196;-97.114;2022-11-25T00:54:21;1.35;;;1.33;;
19621;SDS011;9958;33.196;-97.114;2022-11-25T00:56:49;3.38;;;1.15;;
19621;SDS011;9958;33.196;-97.114;2022-11-25T00:59:17;2.30;;;1.20;;
19621;SDS011;9958;33.196;-97.114;2022-11-25T01:01:46;1.20;;;1.10;;
19621;SDS011;9958;33.196;-97.114;2022-11-25T01:04:16;1.10;;;1.10;;
19621;SDS011;9958;33.196;-97.114;2022-11-25T01:06:44;1.20;;;1.20;;
19621;SDS011;9958;33.196;-97.114;2022-11-25T01:09:12;1.60;;;1.50;;
19621;SDS011;9958;33.196;-97.114;2022-11-25T01:11:41;1.23;;;1.20;;
19621;SDS011;9958;33.196;-97.114;2022-11-25T01:14:09;1.10;;;1.10;;
19621;SDS011;9958;33.196;-97.114;2022-11-25T01:16:37;1.98;;;1.10;;
19621;SDS011;9958;33.196;-97.114;2022-11-25T01:19:06;0.90;;;0.90;;
19621;SDS011;9958;33.196;-97.114;2022-11-25T01:21:36;1.27;;;1.27;;
19621;SDS011;9958;33.196;-97.114;2022-11-25T01:24:07;2.05;;;1.30;;
19621;SDS011;9958;33.196;-97.114;2022-11-25T01:26:36;1.50;;;1.40;;
19621;SDS011;9958;33.196;-97.114;2022-11-25T01:29:05;2.45;;;1.83;;
19621;SDS011;9958;33.196;-97.114;2022-11-25T01:31:38;1.10;;;1.10;;
19621;SDS011;9958;33.196;-97.114;2022-11-25T01:34:07;1.35;;;1.25;;
19621;SDS011;9958;33.196;-97.114;2022-11-25T01:36:40;1.38;;;1.30;;
19621;SDS011;9958;33.196;-97.114;2022-11-25T01:39:10;1.48;;;1.38;;
19621;SDS011;9958;33.196;-97.114;2022-11-25T01:41:43;1.60;;;1.50;;
19621;SDS011;9958;33.196;-97.114;2022-11-25T01:44:12;1.83;;;1.67;;
19621;SDS011;9958;33.196;-97.114;2022-11-25T01:46:42;2.42;;;1.67;;
19621;SDS011;9958;33.196;-97.114;2022-11-25T01:49:31;1.60;;;1.50;;
19621;SDS011;9958;33.196;-97.114;2022-11-25T01:52:07;1.60;;;1.50;;
19621;SDS011;9958;33.196;-97.114;2022-11-25T01:54:40;2.70;;;1.98;;
19621;SDS011;9958;33.196;-97.114;2022-11-25T01:57:13;1.88;;;1.77;;
19621;SDS011;9958;33.196;-97.114;2022-11-25T01:59:47;2.33;;;2.00;;
19621;SDS011;9958;33.196;-97.114;2022-11-25T02:02:17;1.90;;;1.80;;
19621;SDS011;9958;33.196;-97.114;2022-11-25T02:04:48;2.22;;;1.95;;
19621;SDS011;9958;33.196;-97.114;2022-11-25T02:07:21;2.50;;;2.30;;
19621;SDS011;9958;33.196;-97.114;2022-11-25T02:09:54;1.80;;;1.70;;
19621;SDS011;9958;33.196;-97.114;2022-11-25T02:12:23;2.13;;;1.90;;
19621;SDS011;9958;33.196;-97.114;2022-11-25T02:14:53;3.80;;;2.38;;
19621;SDS011;9958;33.196;-97.114;2022-11-25T02:17:23;4.13;;;2.53;;
19621;SDS011;9958;33.196;-97.114;2022-11-25T02:19:53;3.72;;;2.40;;
19621;SDS011;9958;33.196;-97.114;2022-11-25T02:22:29;2.80;;;2.50;;
19621;SDS011;9958;33.196;-97.114;2022-11-25T02:25:12;3.60;;;2.40;;
19621;SDS011;9958;33.196;-97.114;2022-11-25T02:27:43;3.30;;;2.33;;
19621;SDS011;9958;33.196;-97.114;2022-11-25T02:30:16;4.40;;;2.35;;
19621;SDS011;9958;33.196;-97.114;2022-11-25T02:32:45;3.78;;;3.03;;
19621;SDS011;9958;33.196;-97.114;2022-11-25T02:35:27;2.50;;;2.30;;
19621;SDS011;9958;33.196;-97.114;2022-11-25T02:37:58;5.13;;;2.60;;
19621;SDS011;9958;33.196;-97.114;2022-11-25T02:40:35;3.42;;;2.70;;
19621;SDS011;9958;33.196;-97.114;2022-11-25T02:43:08;3.17;;;2.50;;
19621;SDS011;9958;33.196;-97.114;2022-11-25T02:45:40;2.45;;;2.25;;
19621;SDS011;9958;33.196;-97.114;2022-11-25T02:48:19;3.25;;;2.67;;
19621;SDS011;9958;33.196;-97.114;2022-11-25T02:50:48;2.72;;;2.20;;
19621;SDS011;9958;33.196;-97.114;2022-11-25T02:53:16;2.75;;;2.53;;
19621;SDS011;9958;33.196;-97.114;2022-11-25T02:55:46;5.03;;;3.10;;
19621;SDS011;9958;33.196;-97.114;2022-11-25T02:58:15;3.97;;;2.80;;
19621;SDS011;9958;33.196;-97.114;2022-11-25T03:00:43;3.25;;;2.90;;
19621;SDS011;9958;33.196;-97.114;2022-11-25T03:03:12;4.05;;;2.95;;
19621;SDS011;9958;33.196;-97.114;2022-11-25T03:05:40;3.03;;;2.63;;
19621;SDS011;9958;33.196;-97.114;2022-11-25T03:08:09;3.33;;;3.00;;
19621;SDS011;9958;33.196;-97.114;2022-11-25T03:10:37;3.33;;;2.95;;
19621;SDS011;9958;33.196;-97.114;2022-11-25T03:13:08;4.30;;;3.60;;
19621;SDS011;9958;33.196;-97.114;2022-11-25T03:15:36;4.30;;;3.30;;
19621;SDS011;9958;33.196;-97.114;2022-11-25T03:18:05;5.35;;;3.67;;
19621;SDS011;9958;33.196;-97.114;2022-11-25T03:20:33;4.85;;;3.92;;
19621;SDS011;9958;33.196;-97.114;2022-11-25T03:23:02;4.93;;;3.50;;
19621;SDS011;9958;33.196;-97.114;2022-11-25T03:25:32;5.03;;;4.00;;
19621;SDS011;9958;33.196;-97.114;2022-11-25T03:28:02;5.68;;;4.53;;
19621;SDS011;9958;33.196;-97.114;2022-11-25T03:30:32;5.47;;;3.92;;
19621;SDS011;9958;33.196;-97.114;2022-11-25T03:33:00;5.28;;;3.88;;
19621;SDS011;9958;33.196;-97.114;2022-11-25T03:35:29;6.13;;;4.03;;
19621;SDS011;9958;33.196;-97.114;2022-11-25T03:37:57;5.05;;;3.90;;
19621;SDS011;9958;33.196;-97.114;2022-11-25T03:40:25;6.95;;;4.28;;
19621;SDS011;9958;33.196;-97.114;2022-11-25T03:42:54;4.65;;;4.07;;
19621;SDS011;9958;33.196;-97.114;2022-11-25T03:45:22;6.03;;;4.03;;
19621;SDS011;9958;33.196;-97.114;2022-11-25T03:47:52;4.43;;;3.80;;
19621;SDS011;9958;33.196;-97.114;2022-11-25T03:50:20;4.40;;;3.40;;
19621;SDS011;9958;33.196;-97.114;2022-11-25T03:52:49;4.38;;;3.55;;
19621;SDS011;9958;33.196;-97.114;2022-11-25T03:55:17;5.15;;;3.90;;
19621;SDS011;9958;33.196;-97.114;2022-11-25T03:57:45;5.32;;;3.97;;
19621;SDS011;9958;33.196;-97.114;2022-11-25T04:00:14;4.50;;;3.72;;
19621;SDS011;9958;33.196;-97.114;2022-11-25T04:02:42;5.55;;;4.35;;
19621;SDS011;9958;33.196;-97.114;2022-11-25T04:05:12;5.93;;;4.38;;
19621;SDS011;9958;33.196;-97.114;2022-11-25T04:07:40;7.00;;;4.57;;
19621;SDS011;9958;33.196;-97.114;2022-11-25T04:10:08;7.13;;;5.50;;
19621;SDS011;9958;33.196;-97.114;2022-11-25T04:12:37;7.70;;;5.75;;
19621;SDS011;9958;33.196;-97.114;2022-11-25T04:15:14;8.52;;;5.72;;
19621;SDS011;9958;33.196;-97.114;2022-11-25T04:17:43;14.10;;;6.07;;
19621;SDS011;9958;33.196;-97.114;2022-11-25T04:20:13;7.93;;;5.55;;
19621;SDS011;9958;33.196;-97.114;2022-11-25T04:22:42;6.95;;;5.60;;
19621;SDS011;9958;33.196;-97.114;2022-11-25T04:25:10;9.00;;;5.95;;
19621;SDS011;9958;33.196;-97.114;2022-11-25T04:27:39;9.15;;;6.38;;
19621;SDS011;9958;33.196;-97.114;2022-11-25T04:30:07;9.98;;;6.53;;
19621;SDS011;9958;33.196;-97.114;2022-11-25T04:32:36;9.23;;;6.72;;
19621;SDS011;9958;33.196;-97.114;2022-11-25T04:35:05;8.00;;;5.75;;
19621;SDS011;9958;33.196;-97.114;2022-11-25T04:37:35;10.13;;;6.95;;
19621;SDS011;9958;33.196;-97.114;2022-11-25T04:40:04;11.30;;;7.10;;
19621;SDS011;9958;33.196;-97.114;2022-11-25T04:42:33;9.95;;;6.72;;
19621;SDS011;9958;33.196;-97.114;2022-11-25T04:45:04;8.70;;;6.20;;
19621;SDS011;9958;33.196;-97.114;2022-11-25T04:47:34;10.18;;;6.53;;
19621;SDS011;9958;33.196;-97.114;2022-11-25T04:50:03;10.23;;;6.55;;
19621;SDS011;9958;33.196;-97.114;2022-11-25T04:52:32;12.07;;;6.93;;
19621;SDS011;9958;33.196;-97.114;2022-11-25T04:55:02;10.00;;;6.65;;
19621;SDS011;9958;33.196;-97.114;2022-11-25T04:57:31;9.50;;;6.60;;
19621;SDS011;9958;33.196;-97.114;2022-11-25T04:59:59;8.20;;;6.40;;
19621;SDS011;9958;33.196;-97.114;2022-11-25T05:02:28;9.45;;;6.43;;
19621;SDS011;9958;33.196;-97.114;2022-11-25T05:04:56;12.07;;;6.00;;
19621;SDS011;9958;33.196;-97.114;2022-11-25T05:07:25;10.48;;;6.53;;
19621;SDS011;9958;33.196;-97.114;2022-11-25T05:09:56;10.82;;;6.65;;
19621;SDS011;9958;33.196;-97.114;2022-11-25T05:12:25;8.48;;;5.50;;
19621;SDS011;9958;33.196;-97.114;2022-11-25T05:14:54;10.07;;;6.35;;
19621;SDS011;9958;33.196;-97.114;2022-11-25T05:17:23;7.82;;;5.93;;
19621;SDS011;9958;33.196;-97.114;2022-11-25T05:19:53;9.57;;;5.85;;
19621;SDS011;9958;33.196;-97.114;2022-11-25T05:22:22;7.85;;;5.20;;
19621;SDS011;9958;33.196;-97.114;2022-11-25T05:24:52;7.30;;;5.55;;
19621;SDS011;9958;33.196;-97.114;2022-11-25T05:27:22;7.75;;;5.28;;
19621;SDS011;9958;33.196;-97.114;2022-11-25T05:29:51;5.95;;;4.88;;
19621;SDS011;9958;33.196;-97.114;2022-11-25T05:32:19;7.45;;;5.05;;
19621;SDS011;9958;33.196;-97.114;2022-11-25T05:34:48;5.82;;;4.57;;
19621;SDS011;9958;33.196;-97.114;2022-11-25T05:37:16;7.55;;;5.13;;
19621;SDS011;9958;33.196;-97.114;2022-11-25T05:39:44;5.55;;;4.43;;
19621;SDS011;9958;33.196;-97.114;2022-11-25T05:42:12;5.82;;;4.55;;
19621;SDS011;9958;33.196;-97.114;2022-11-25T05:44:42;5.20;;;4.53;;
19621;SDS011;9958;33.196;-97.114;2022-11-25T05:47:11;4.15;;;3.75;;
19621;SDS011;9958;33.196;-97.114;2022-11-25T05:49:39;5.40;;;3.88;;
19621;SDS011;9958;33.196;-97.114;2022-11-25T05:52:07;5.28;;;4.30;;
19621;SDS011;9958;33.196;-97.114;2022-11-25T05:54:35;4.60;;;4.18;;
19621;SDS011;9958;33.196;-97.114;2022-11-25T05:57:04;5.70;;;4.05;;
19621;SDS011;9958;33.196;-97.114;2022-11-25T05:59:32;4.25;;;3.70;;
19621;SDS011;9958;33.196;-97.114;2022-11-25T06:02:02;5.53;;;4.10;;
19621;SDS011;9958;33.196;-97.114;2022-11-25T06:04:30;4.78;;;3.88;;
19621;SDS011;9958;33.196;-97.114;2022-11-25T06:06:59;3.28;;;2.97;;
19621;SDS011;9958;33.196;-97.114;2022-11-25T06:09:27;4.65;;;3.47;;
19621;SDS011;9958;33.196;-97.114;2022-11-25T06:11:55;3.95;;;3.55;;
19621;SDS011;9958;33.196;-97.114;2022-11-25T06:14:23;4.47;;;3.60;;
19621;SDS011;9958;33.196;-97.114;2022-11-25T06:16:52;4.35;;;2.97;;
19621;SDS011;9958;33.196;-97.114;2022-11-25T06:19:22;5.60;;;3.75;;
19621;SDS011;9958;33.196;-97.114;2022-11-25T06:21:50;3.92;;;3.03;;
19621;SDS011;9958;33.196;-97.114;2022-11-25T06:24:18;3.55;;;3.00;;
19621;SDS011;9958;33.196;-97.114;2022-11-25T06:26:46;3.67;;;3.30;;
19621;SDS011;9958;33.196;-97.114;2022-11-25T06:29:15;3.60;;;3.30;;
19621;SDS011;9958;33.196;-97.114;2022-11-25T06:31:43;3.47;;;3.10;;
19621;SDS011;9958;33.196;-97.114;2022-11-25T06:34:11;4.63;;;3.28;;
19621;SDS011;9958;33.196;-97.114;2022-11-25T06:36:41;3.28;;;2.92;;
19621;SDS011;9958;33.196;-97.114;2022-11-25T06:39:09;3.85;;;3.35;;
19621;SDS011;9958;33.196;-97.114;2022-11-25T06:41:37;3.67;;;2.88;;
19621;SDS011;9958;33.196;-97.114;2022-11-25T06:44:06;3.25;;;2.75;;
19621;SDS011;9958;33.196;-97.114;2022-11-25T06:46:34;3.00;;;2.72;;
19621;SDS011;9958;33.196;-97.114;2022-11-25T06:49:02;3.15;;;2.85;;
19621;SDS011;9958;33.196;-97.114;2022-11-25T06:51:31;4.15;;;2.63;;
19621;SDS011;9958;33.196;-97.114;2022-11-25T06:54:01;3.35;;;2.90;;
19621;SDS011;9958;33.196;-97.114;2022-11-25T06:56:29;5.45;;;3.03;;
19621;SDS011;9958;33.196;-97.114;2022-11-25T06:58:58;3.15;;;2.67;;
19621;SDS011;9958;33.196;-97.114;2022-11-25T07:01:26;2.92;;;2.40;;
19621;SDS011;9958;33.196;-97.114;2022-11-25T07:03:57;2.78;;;2.50;;
19621;SDS011;9958;33.196;-97.114;2022-11-25T07:06:27;2.60;;;2.40;;
19621;SDS011;9958;33.196;-97.114;2022-11-25T07:08:57;2.58;;;2.38;;
19621;SDS011;9958;33.196;-97.114;2022-11-25T07:11:27;2.45;;;2.25;;
19621;SDS011;9958;33.196;-97.114;2022-11-25T07:13:57;3.35;;;2.53;;
19621;SDS011;9958;33.196;-97.114;2022-11-25T07:16:26;2.55;;;2.35;;
19621;SDS011;9958;33.196;-97.114;2022-11-25T07:18:55;2.50;;;2.30;;
19621;SDS011;9958;33.196;-97.114;2022-11-25T07:21:26;3.85;;;2.50;;
19621;SDS011;9958;33.196;-97.114;2022-11-25T07:23:57;2.85;;;2.47;;
19621;SDS011;9958;33.196;-97.114;2022-11-25T07:26:28;2.45;;;2.25;;
19621;SDS011;9958;33.196;-97.114;2022-11-25T07:28:58;2.60;;;2.05;;
19621;SDS011;9958;33.196;-97.114;2022-11-25T07:31:29;2.97;;;2.38;;
19621;SDS011;9958;33.196;-97.114;2022-11-25T07:33:58;1.90;;;1.75;;
19621;SDS011;9958;33.196;-97.114;2022-11-25T07:36:27;2.67;;;2.38;;
19621;SDS011;9958;33.196;-97.114;2022-11-25T07:38:56;2.28;;;2.05;;
19621;SDS011;9958;33.196;-97.114;2022-11-25T07:41:28;3.92;;;2.20;;
19621;SDS011;9958;33.196;-97.114;2022-11-25T07:43:57;3.15;;;2.60;;
19621;SDS011;9958;33.196;-97.114;2022-11-25T07:46:27;2.42;;;2.22;;
19621;SDS011;9958;33.196;-97.114;2022-11-25T07:48:57;2.88;;;2.63;;
19621;SDS011;9958;33.196;-97.114;2022-11-25T07:51:26;2.45;;;2.25;;
19621;SDS011;9958;33.196;-97.114;2022-11-25T07:53:56;2.60;;;2.28;;
19621;SDS011;9958;33.196;-97.114;2022-11-25T07:56:25;2.92;;;1.90;;
19621;SDS011;9958;33.196;-97.114;2022-11-25T07:58:56;2.38;;;2.25;;
19621;SDS011;9958;33.196;-97.114;2022-11-25T08:01:24;2.40;;;1.98;;
19621;SDS011;9958;33.196;-97.114;2022-11-25T08:03:53;2.22;;;2.03;;
19621;SDS011;9958;33.196;-97.114;2022-11-25T08:06:21;2.25;;;2.05;;
19621;SDS011;9958;33.196;-97.114;2022-11-25T08:08:51;2.45;;;2.25;;
19621;SDS011;9958;33.196;-97.114;2022-11-25T08:11:21;2.53;;;2.33;;
19621;SDS011;9958;33.196;-97.114;2022-11-25T08:13:52;2.20;;;2.00;;
19621;SDS011;9958;33.196;-97.114;2022-11-25T08:16:21;1.80;;;1.70;;
19621;SDS011;9958;33.196;-97.114;2022-11-25T08:18:50;2.42;;;2.25;;
19621;SDS011;9958;33.196;-97.114;2022-11-25T08:21:19;2.28;;;2.08;;
19621;SDS011;9958;33.196;-97.114;2022-11-25T08:23:48;4.05;;;2.00;;
19621;SDS011;9958;33.196;-97.114;2022-11-25T08:26:17;2.25;;;1.90;;
19621;SDS011;9958;33.196;-97.114;2022-11-25T08:28:47;2.80;;;2.05;;
19621;SDS011;9958;33.196;-97.114;2022-11-25T08:31:18;2.10;;;1.90;;
19621;SDS011;9958;33.196;-97.114;2022-11-25T08:33:48;1.90;;;1.80;;
19621;SDS011;9958;33.196;-97.114;2022-11-25T08:36:17;2.25;;;2.05;;
19621;SDS011;9958;33.196;-97.114;2022-11-25T08:38:46;3.50;;;1.70;;
19621;SDS011;9958;33.196;-97.114;2022-11-25T08:41:16;2.38;;;1.85;;
19621;SDS011;9958;33.196;-97.114;2022-11-25T08:43:46;2.22;;;2.03;;
19621;SDS011;9958;33.196;-97.114;2022-11-25T08:46:15;1.60;;;1.50;;
19621;SDS011;9958;33.196;-97.114;2022-11-25T08:48:46;2.00;;;1.80;;
19621;SDS011;9958;33.196;-97.114;2022-11-25T08:51:15;3.28;;;2.30;;
19621;SDS011;9958;33.196;-97.114;2022-11-25T08:53:45;3.80;;;2.40;;
19621;SDS011;9958;33.196;-97.114;2022-11-25T08:56:15;2.40;;;2.20;;
19621;SDS011;9958;33.196;-97.114;2022-11-25T08:58:44;2.83;;;2.50;;
19621;SDS011;9958;33.196;-97.114;2022-11-25T09:01:13;2.47;;;1.90;;
19621;SDS011;9958;33.196;-97.114;2022-11-25T09:03:45;3.63;;;1.95;;
19621;SDS011;9958;33.196;-97.114;2022-11-25T09:06:14;2.08;;;1.85;;
19621;SDS011;9958;33.196;-97.114;2022-11-25T09:08:43;3.70;;;2.17;;
19621;SDS011;9958;33.196;-97.114;2022-11-25T09:11:12;2.83;;;2.17;;
19621;SDS011;9958;33.196;-97.114;2022-11-25T09:13:41;3.28;;;2.22;;
19621;SDS011;9958;33.196;-97.114;2022-11-25T09:16:09;3.08;;;2.47;;
19621;SDS011;9958;33.196;-97.114;2022-11-25T09:18:37;1.75;;;1.65;;
19621;SDS011;9958;33.196;-97.114;2022-11-25T09:21:08;2.53;;;2.25;;
19621;SDS011;9958;33.196;-97.114;2022-11-25T09:23:37;2.92;;;2.10;;
19621;SDS011;9958;33.196;-97.114;2022-11-25T09:26:05;2.47;;;2.10;;
19621;SDS011;9958;33.196;-97.114;2022-11-25T09:28:40;2.50;;;2.30;;
19621;SDS011;9958;33.196;-97.114;2022-11-25T09:31:08;2.92;;;1.98;;
19621;SDS011;9958;33.196;-97.114;2022-11-25T09:33:36;2.20;;;1.85;;
19621;SDS011;9958;33.196;-97.114;2022-11-25T09:36:05;2.17;;;2.00;;
19621;SDS011;9958;33.196;-97.114;2022-11-25T09:38:35;2.72;;;2.08;;
19621;SDS011;9958;33.196;-97.114;2022-11-25T09:41:03;2.95;;;2.40;;
19621;SDS011;9958;33.196;-97.114;2022-11-25T09:43:40;1.80;;;1.70;;
19621;SDS011;9958;33.196;-97.114;2022-11-25T09:46:38;2.28;;;2.08;;
19621;SDS011;9958;33.196;-97.114;2022-11-25T09:49:26;2.45;;;2.25;;
19621;SDS011;9958;33.196;-97.114;2022-11-25T09:52:05;2.30;;;2.10;;
19621;SDS011;9958;33.196;-97.114;2022-11-25T09:54:40;2.65;;;2.40;;
19621;SDS011;9958;33.196;-97.114;2022-11-25T09:57:20;2.30;;;2.10;;
19621;SDS011;9958;33.196;-97.114;2022-11-25T09:59:58;2.88;;;2.28;;
19621;SDS011;9958;33.196;-97.114;2022-11-25T10:02:33;2.63;;;2.42;;
19621;SDS011;9958;33.196;-97.114;2022-11-25T10:05:07;2.28;;;2.08;;
19621;SDS011;9958;33.196;-97.114;2022-11-25T10:07:41;2.72;;;2.40;;
19621;SDS011;9958;33.196;-97.114;2022-11-25T10:10:17;2.58;;;2.38;;
19621;SDS011;9958;33.196;-97.114;2022-11-25T10:12:50;3.47;;;2.92;;
19621;SDS011;9958;33.196;-97.114;2022-11-25T10:15:22;3.00;;;2.60;;
19621;SDS011;9958;33.196;-97.114;2022-11-25T10:17:54;2.95;;;2.47;;
19621;SDS011;9958;33.196;-97.114;2022-11-25T10:20:28;3.42;;;3.00;;
19621;SDS011;9958;33.196;-97.114;2022-11-25T10:22:59;2.95;;;2.70;;
19621;SDS011;9958;33.196;-97.114;2022-11-25T10:25:32;4.30;;;2.60;;
19621;SDS011;9958;33.196;-97.114;2022-11-25T10:28:09;3.05;;;2.72;;
19621;SDS011;9958;33.196;-97.114;2022-11-25T10:30:45;3.80;;;3.15;;
19621;SDS011;9958;33.196;-97.114;2022-11-25T10:33:17;3.13;;;2.80;;
19621;SDS011;9958;33.196;-97.114;2022-11-25T10:35:48;3.60;;;3.05;;
19621;SDS011;9958;33.196;-97.114;2022-11-25T10:38:20;3.17;;;2.88;;
19621;SDS011;9958;33.196;-97.114;2022-11-25T10:40:55;4.18;;;3.40;;
19621;SDS011;9958;33.196;-97.114;2022-11-25T10:43:25;3.30;;;3.00;;
19621;SDS011;9958;33.196;-97.114;2022-11-25T10:45:54;3.70;;;3.08;;
19621;SDS011;9958;33.196;-97.114;2022-11-25T10:48:37;3.60;;;3.00;;
19621;SDS011;9958;33.196;-97.114;2022-11-25T10:51:18;4.63;;;3.80;;
19621;SDS011;9958;33.196;-97.114;2022-11-25T10:54:13;4.00;;;3.58;;
19621;SDS011;9958;33.196;-97.114;2022-11-25T10:56:49;3.63;;;3.30;;
19621;SDS011;9958;33.196;-97.114;2022-11-25T10:59:23;4.50;;;3.90;;
19621;SDS011;9958;33.196;-97.114;2022-11-25T11:02:04;6.75;;;3.88;;
19621;SDS011;9958;33.196;-97.114;2022-11-25T11:04:53;6.00;;;3.92;;
19621;SDS011;9958;33.196;-97.114;2022-11-25T11:07:25;4.53;;;3.75;;
19621;SDS011;9958;33.196;-97.114;2022-11-25T11:09:54;7.03;;;4.00;;
19621;SDS011;9958;33.196;-97.114;2022-11-25T11:12:52;7.65;;;4.75;;
19621;SDS011;9958;33.196;-97.114;2022-11-25T11:15:25;5.78;;;3.58;;
19621;SDS011;9958;33.196;-97.114;2022-11-25T11:17:54;6.43;;;4.07;;
19621;SDS011;9958;33.196;-97.114;2022-11-25T11:20:24;5.35;;;4.38;;
19621;SDS011;9958;33.196;-97.114;2022-11-25T11:22:55;6.80;;;4.63;;
19621;SDS011;9958;33.196;-97.114;2022-11-25T11:25:28;5.65;;;4.43;;
19621;SDS011;9958;33.196;-97.114;2022-11-25T11:27:59;6.75;;;4.50;;
19621;SDS011;9958;33.196;-97.114;2022-11-25T11:30:29;5.55;;;4.32;;
19621;SDS011;9958;33.196;-97.114;2022-11-25T11:33:00;7.05;;;4.63;;
19621;SDS011;9958;33.196;-97.114;2022-11-25T11:35:42;7.57;;;4.53;;
19621;SDS011;9958;33.196;-97.114;2022-11-25T11:38:18;7.47;;;4.63;;
19621;SDS011;9958;33.196;-97.114;2022-11-25T11:40:54;6.75;;;4.93;;
19621;SDS011;9958;33.196;-97.114;2022-11-25T11:46:38;6.35;;;4.28;;
19621;SDS011;9958;33.196;-97.114;2022-11-25T11:52:14;5.03;;;3.67;;
19621;SDS011;9958;33.196;-97.114;2022-11-25T11:54:52;5.43;;;4.55;;
19621;SDS011;9958;33.196;-97.114;2022-11-25T11:57:26;5.75;;;4.05;;
19621;SDS011;9958;33.196;-97.114;2022-11-25T12:00:03;5.47;;;4.40;;
19621;SDS011;9958;33.196;-97.114;2022-11-25T12:02:37;5.32;;;4.00;;
19621;SDS011;9958;33.196;-97.114;2022-11-25T12:05:16;10.38;;;4.30;;
19621;SDS011;9958;33.196;-97.114;2022-11-25T12:07:52;4.85;;;3.38;;
19621;SDS011;9958;33.196;-97.114;2022-11-25T12:10:28;5.00;;;4.18;;
19621;SDS011;9958;33.196;-97.114;2022-11-25T12:13:01;6.03;;;3.90;;
19621;SDS011;9958;33.196;-97.114;2022-11-25T12:15:40;6.15;;;3.97;;
19621;SDS011;9958;33.196;-97.114;2022-11-25T12:18:17;5.75;;;3.80;;
19621;SDS011;9958;33.196;-97.114;2022-11-25T12:20:56;4.22;;;3.50;;
19621;SDS011;9958;33.196;-97.114;2022-11-25T12:23:32;5.82;;;4.00;;
19621;SDS011;9958;33.196;-97.114;2022-11-25T12:26:10;5.18;;;3.80;;
19621;SDS011;9958;33.196;-97.114;2022-11-25T12:28:42;6.60;;;3.70;;
19621;SDS011;9958;33.196;-97.114;2022-11-25T12:31:17;6.00;;;4.00;;
19621;SDS011;9958;33.196;-97.114;2022-11-25T12:33:52;6.15;;;3.80;;
19621;SDS011;9958;33.196;-97.114;2022-11-25T12:36:27;5.63;;;3.92;;
19621;SDS011;9958;33.196;-97.114;2022-11-25T12:39:01;6.03;;;3.80;;
19621;SDS011;9958;33.196;-97.114;2022-11-25T12:41:34;5.82;;;3.50;;
19621;SDS011;9958;33.196;-97.114;2022-11-25T12:44:09;7.10;;;3.83;;
19621;SDS011;9958;33.196;-97.114;2022-11-25T12:46:45;7.13;;;3.72;;
19621;SDS011;9958;33.196;-97.114;2022-11-25T12:49:16;4.80;;;3.47;;
19621;SDS011;9958;33.196;-97.114;2022-11-25T12:54:50;5.32;;;3.90;;
19621;SDS011;9958;33.196;-97.114;2022-11-25T12:57:56;4.18;;;3.22;;
19621;SDS011;9958;33.196;-97.114;2022-11-25T13:00:49;5.57;;;3.90;;
19621;SDS011;9958;33.196;-97.114;2022-11-25T13:03:43;6.22;;;3.67;;
19621;SDS011;9958;33.196;-97.114;2022-11-25T13:06:43;6.30;;;3.67;;
19621;SDS011;9958;33.196;-97.114;2022-11-25T13:09:32;6.22;;;3.67;;
19621;SDS011;9958;33.196;-97.114;2022-11-25T13:12:19;7.28;;;4.35;;
19621;SDS011;9958;33.196;-97.114;2022-11-25T13:17:56;6.28;;;4.22;;
19621;SDS011;9958;33.196;-97.114;2022-11-25T13:20:35;5.10;;;3.42;;
19621;SDS011;9958;33.196;-97.114;2022-11-25T13:23:21;7.72;;;3.60;;
19621;SDS011;9958;33.196;-97.114;2022-11-25T13:28:52;5.63;;;3.33;;
19621;SDS011;9958;33.196;-97.114;2022-11-25T13:31:20;7.05;;;3.58;;
19621;SDS011;9958;33.196;-97.114;2022-11-25T13:36:52;5.05;;;3.78;;
19621;SDS011;9958;33.196;-97.114;2022-11-25T13:39:28;3.90;;;3.40;;
19621;SDS011;9958;33.196;-97.114;2022-11-25T13:41:59;5.35;;;3.40;;
19621;SDS011;9958;33.196;-97.114;2022-11-25T13:44:30;4.07;;;3.47;;
19621;SDS011;9958;33.196;-97.114;2022-11-25T13:50:00;8.38;;;2.75;;
19621;SDS011;9958;33.196;-97.114;2022-11-25T13:52:38;4.53;;;3.00;;
19621;SDS011;9958;33.196;-97.114;2022-11-25T13:55:20;4.35;;;3.03;;
19621;SDS011;9958;33.196;-97.114;2022-11-25T13:58:14;3.65;;;3.03;;
19621;SDS011;9958;33.196;-97.114;2022-11-25T14:00:50;5.22;;;3.17;;
19621;SDS011;9958;33.196;-97.114;2022-11-25T14:06:24;4.05;;;2.63;;
19621;SDS011;9958;33.196;-97.114;2022-11-25T14:09:22;4.15;;;2.78;;
19621;SDS011;9958;33.196;-97.114;2022-11-25T14:12:21;7.03;;;3.67;;
19621;SDS011;9958;33.196;-97.114;2022-11-25T14:15:18;5.20;;;3.55;;
19621;SDS011;9958;33.196;-97.114;2022-11-25T14:18:11;4.82;;;3.58;;
19621;SDS011;9958;33.196;-97.114;2022-11-25T14:21:07;3.88;;;2.85;;
19621;SDS011;9958;33.196;-97.114;2022-11-25T14:23:48;4.32;;;3.10;;
19621;SDS011;9958;33.196;-97.114;2022-11-25T14:26:32;4.22;;;3.17;;
19621;SDS011;9958;33.196;-97.114;2022-11-25T14:29:05;5.53;;;3.10;;
19621;SDS011;9958;33.196;-97.114;2022-11-25T14:31:40;3.72;;;2.90;;
19621;SDS011;9958;33.196;-97.114;2022-11-25T14:34:11;4.50;;;2.95;;
19621;SDS011;9958;33.196;-97.114;2022-11-25T14:36:47;4.85;;;3.47;;
19621;SDS011;9958;33.196;-97.114;2022-11-25T14:39:20;4.18;;;3.33;;
19621;SDS011;9958;33.196;-97.114;2022-11-25T14:41:56;6.35;;;3.33;;
19621;SDS011;9958;33.196;-97.114;2022-11-25T14:44:30;4.22;;;2.80;;
19621;SDS011;9958;33.196;-97.114;2022-11-25T14:47:02;3.97;;;2.85;;
19621;SDS011;9958;33.196;-97.114;2022-11-25T14:49:42;5.13;;;3.35;;
19621;SDS011;9958;33.196;-97.114;2022-11-25T14:52:14;4.38;;;2.90;;
19621;SDS011;9958;33.196;-97.114;2022-11-25T14:54:47;6.25;;;2.70;;
19621;SDS011;9958;33.196;-97.114;2022-11-25T14:57:23;3.70;;;2.92;;
19621;SDS011;9958;33.196;-97.114;2022-11-25T14:59:53;5.40;;;3.03;;
19621;SDS011;9958;33.196;-97.114;2022-11-25T15:02:24;5.57;;;3.03;;
19621;SDS011;9958;33.196;-97.114;2022-11-25T15:05:06;3.42;;;3.13;;
19621;SDS011;9958;33.196;-97.114;2022-11-25T15:07:52;4.25;;;3.30;;
19621;SDS011;9958;33.196;-97.114;2022-11-25T15:10:33;3.35;;;2.75;;
19621;SDS011;9958;33.196;-97.114;2022-11-25T15:13:10;4.88;;;2.67;;
19621;SDS011;9958;33.196;-97.114;2022-11-25T15:15:50;4.78;;;3.00;;
19621;SDS011;9958;33.196;-97.114;2022-11-25T15:18:20;3.53;;;3.22;;
19621;SDS011;9958;33.196;-97.114;2022-11-25T15:20:52;3.85;;;3.08;;
19621;SDS011;9958;33.196;-97.114;2022-11-25T15:23:25;3.97;;;3.20;;
19621;SDS011;9958;33.196;-97.114;2022-11-25T15:25:56;4.15;;;3.20;;
19621;SDS011;9958;33.196;-97.114;2022-11-25T15:28:27;7.60;;;3.17;;